createdAt,value
2019-02-11T00:00:56.631Z,50.20
2019-02-11T00:03:25.498Z,48.10
2019-02-11T00:05:54.229Z,49.73
2019-02-11T00:08:22.946Z,48.77
2019-02-11T00:10:51.762Z,46.27
2019-02-11T00:13:20.492Z,50.20
2019-02-11T00:15:49.224Z,50.23
2019-02-11T00:18:17.974Z,51.17
2019-02-11T00:20:46.709Z,47.37
2019-02-11T00:23:15.422Z,47.10
2019-02-11T00:25:44.195Z,47.70
2019-02-11T00:28:12.925Z,45.27
2019-02-11T00:30:41.646Z,44.43
2019-02-11T00:33:10.544Z,51.17
2019-02-11T00:35:39.308Z,44.77
2019-02-11T00:38:08.034Z,43.03
2019-02-11T00:40:36.902Z,42.70
2019-02-11T00:43:05.628Z,46.70
2019-02-11T00:45:34.344Z,46.70
2019-02-11T00:48:04.335Z,46.13
2019-02-11T00:50:33.060Z,50.10
2019-02-11T00:53:01.786Z,46.07
2019-02-11T00:55:30.565Z,47.17
2019-02-11T00:57:59.293Z,46.50
2019-02-11T01:00:28.017Z,47.10
2019-02-11T01:02:57.025Z,45.33
2019-02-11T01:05:25.745Z,46.27
2019-02-11T01:07:54.475Z,42.90
2019-02-11T01:10:23.238Z,48.50
2019-02-11T01:12:51.968Z,56.57
2019-02-11T01:15:20.696Z,54.77
2019-02-11T01:17:49.888Z,53.93
2019-02-11T01:20:18.616Z,51.50
2019-02-11T01:22:47.340Z,50.13
2019-02-11T01:25:16.556Z,55.10
2019-02-11T01:27:45.292Z,52.47
2019-02-11T01:30:14.019Z,53.37
2019-02-11T01:32:43.227Z,49.97
2019-02-11T01:35:11.954Z,55.70
2019-02-11T01:37:40.729Z,55.33
2019-02-11T01:40:11.046Z,56.97
2019-02-11T01:42:39.780Z,61.73
2019-02-11T01:45:11.217Z,61.67
2019-02-11T01:47:40.349Z,59.27
2019-02-11T01:50:11.486Z,53.33
2019-02-11T01:52:40.214Z,49.60
2019-02-11T01:55:09.078Z,46.47
2019-02-11T01:57:37.846Z,46.43
2019-02-11T02:00:14.676Z,46.87
2019-02-11T02:02:43.402Z,43.37
2019-02-11T02:05:12.119Z,36.77
2019-02-11T02:07:40.994Z,34.07
2019-02-11T02:10:12.688Z,33.33
2019-02-11T02:12:41.409Z,32.87
2019-02-11T02:15:13.105Z,40.27
2019-02-11T02:17:41.828Z,39.37
2019-02-11T02:20:13.329Z,32.70
2019-02-11T02:22:42.324Z,30.77
2019-02-11T02:25:12.149Z,32.47
2019-02-11T02:27:41.572Z,31.10
2019-02-11T02:30:14.807Z,32.33
2019-02-11T02:32:43.515Z,29.20
2019-02-11T02:35:12.241Z,28.10
2019-02-11T02:37:41.123Z,32.67
2019-02-11T02:40:10.610Z,33.33
2019-02-11T02:42:39.340Z,47.53
2019-02-11T02:45:09.699Z,48.63
2019-02-11T02:47:38.438Z,51.53
2019-02-11T02:50:09.176Z,52.20
2019-02-11T02:52:38.053Z,52.23
2019-02-11T02:55:08.084Z,52.13
2019-02-11T02:57:36.808Z,51.40
2019-02-11T03:00:11.410Z,52.53
2019-02-11T03:02:40.145Z,51.00
2019-02-11T03:05:09.672Z,50.97
2019-02-11T03:07:38.977Z,50.40
2019-02-11T03:10:11.709Z,54.50
2019-02-11T03:12:40.432Z,61.63
2019-02-11T03:15:11.024Z,69.77
2019-02-11T03:17:39.749Z,53.27
2019-02-11T03:20:09.474Z,57.63
2019-02-11T03:22:38.345Z,55.50
2019-02-11T03:25:08.485Z,51.87
2019-02-11T03:27:37.194Z,49.30
2019-02-11T03:30:09.152Z,40.00
2019-02-11T03:32:37.883Z,35.13
2019-02-11T03:35:06.880Z,33.90
2019-02-11T03:37:35.844Z,33.37
2019-02-11T03:40:07.272Z,33.00
2019-02-11T03:42:35.993Z,34.40
2019-02-11T03:45:10.612Z,30.70
2019-02-11T03:47:39.329Z,31.93
2019-02-11T03:50:10.329Z,26.73
2019-02-11T03:52:39.293Z,28.70
2019-02-11T03:55:08.612Z,30.67
2019-02-11T03:57:37.343Z,26.47
2019-02-11T04:00:09.271Z,25.90
2019-02-11T04:02:37.996Z,24.23
2019-02-11T04:05:07.839Z,21.83
2019-02-11T04:07:37.014Z,19.97
2019-02-11T04:10:08.761Z,22.07
2019-02-11T04:12:37.480Z,20.93
2019-02-11T04:15:08.398Z,20.90
2019-02-11T04:17:37.124Z,21.40
2019-02-11T04:20:07.550Z,26.17
2019-02-11T04:22:36.325Z,29.77
2019-02-11T04:25:06.460Z,29.47
2019-02-11T04:27:35.350Z,29.20
2019-02-11T04:30:04.592Z,30.97
2019-02-11T04:32:33.330Z,27.60
2019-02-11T04:35:02.068Z,26.53
2019-02-11T04:37:31.184Z,28.20
2019-02-11T04:39:59.911Z,31.67
2019-02-11T04:42:28.635Z,34.77
2019-02-11T04:44:57.862Z,37.00
2019-02-11T04:47:26.585Z,40.30
2019-02-11T04:49:55.305Z,34.90
2019-02-11T04:52:24.082Z,36.77
2019-02-11T04:54:52.815Z,33.07
2019-02-11T04:57:21.555Z,32.50
2019-02-11T04:59:50.449Z,33.57
2019-02-11T05:02:19.170Z,30.43
2019-02-11T05:04:47.897Z,30.20
2019-02-11T05:07:16.693Z,26.43
2019-02-11T05:09:45.416Z,27.73
2019-02-11T05:12:14.186Z,27.63
2019-02-11T05:14:44.265Z,25.50
2019-02-11T05:17:13.183Z,31.43
2019-02-11T05:19:41.906Z,26.47
2019-02-11T05:22:10.793Z,27.77
2019-02-11T05:24:39.525Z,31.70
2019-02-11T05:27:08.267Z,34.47
2019-02-11T05:29:37.016Z,37.40
2019-02-11T05:32:05.752Z,44.67
2019-02-11T05:34:34.485Z,51.37
2019-02-11T05:37:03.265Z,46.30
2019-02-11T05:39:31.999Z,31.30
2019-02-11T05:42:00.724Z,30.40
2019-02-11T05:44:29.489Z,28.53
2019-02-11T05:46:58.269Z,28.23
2019-02-11T05:49:26.991Z,30.23
2019-02-11T05:52:01.614Z,28.77
2019-02-11T05:54:30.339Z,27.60
2019-02-11T05:56:59.067Z,26.03
2019-02-11T05:59:28.060Z,23.60
2019-02-11T06:01:56.772Z,27.03
2019-02-11T06:04:25.487Z,27.13
2019-02-11T06:06:54.291Z,26.17
2019-02-11T06:09:23.468Z,23.70
2019-02-11T06:11:52.186Z,30.30
2019-02-11T06:14:23.207Z,29.43
2019-02-11T06:16:51.618Z,29.93
2019-02-11T06:19:20.378Z,29.20
2019-02-11T06:21:49.247Z,27.43
2019-02-11T06:24:19.445Z,30.23
2019-02-11T06:26:48.180Z,31.53
2019-02-11T06:29:19.009Z,40.13
2019-02-11T06:31:47.529Z,47.50
2019-02-11T06:34:16.234Z,51.03
2019-02-11T06:36:45.009Z,45.20
2019-02-11T06:39:13.740Z,39.47
2019-02-11T06:41:42.459Z,39.37
2019-02-11T06:44:11.357Z,41.17
2019-02-11T06:46:40.080Z,39.67
2019-02-11T06:49:08.850Z,37.50
2019-02-11T06:51:37.754Z,37.13
2019-02-11T06:54:06.485Z,35.83
2019-02-11T06:56:35.210Z,38.73
2019-02-11T06:59:04.414Z,35.63
2019-02-11T07:01:33.139Z,33.90
2019-02-11T07:04:01.852Z,30.67
2019-02-11T07:06:30.664Z,28.10
2019-02-11T07:08:59.390Z,28.17
2019-02-11T07:11:28.120Z,28.67
2019-02-11T07:13:56.975Z,27.77
2019-02-11T07:16:25.701Z,28.87
2019-02-11T07:18:54.422Z,31.37
2019-02-11T07:21:23.193Z,33.57
2019-02-11T07:23:51.924Z,35.67
2019-02-11T07:26:20.637Z,35.97
2019-02-11T07:28:49.965Z,40.63
2019-02-11T07:31:18.698Z,40.80
2019-02-11T07:33:47.417Z,48.13
2019-02-11T07:36:17.989Z,62.13
2019-02-11T07:38:46.843Z,55.47
2019-02-11T07:41:15.561Z,38.93
2019-02-11T07:43:48.670Z,36.13
2019-02-11T07:46:18.950Z,37.90
2019-02-11T07:48:47.675Z,38.13
2019-02-11T07:51:16.688Z,47.03
2019-02-11T07:53:45.411Z,48.47
2019-02-11T07:56:14.129Z,47.97
2019-02-11T07:58:42.920Z,39.17
2019-02-11T08:01:11.653Z,31.13
2019-02-11T08:03:40.373Z,33.70
2019-02-11T08:06:09.261Z,30.63
2019-02-11T08:08:37.952Z,30.40
2019-02-11T08:11:06.682Z,29.93
2019-02-11T08:13:35.645Z,30.90
2019-02-11T08:16:04.469Z,30.33
2019-02-11T08:18:33.191Z,32.50
2019-02-11T08:21:01.958Z,34.47
2019-02-11T08:23:30.680Z,35.30
2019-02-11T08:25:59.406Z,37.07
2019-02-11T08:28:28.656Z,37.00
2019-02-11T08:30:57.396Z,37.77
2019-02-11T08:33:26.224Z,40.57
2019-02-11T08:35:55.007Z,40.93
2019-02-11T08:38:23.730Z,41.40
2019-02-11T08:40:52.456Z,42.70
2019-02-11T08:43:21.332Z,49.20
2019-02-11T08:45:50.050Z,45.07
2019-02-11T08:48:18.767Z,47.00
2019-02-11T08:50:47.583Z,62.17
2019-02-11T08:53:16.320Z,66.63
2019-02-11T08:55:45.046Z,56.83
2019-02-11T08:58:13.903Z,47.50
2019-02-11T09:00:42.703Z,45.83
2019-02-11T09:03:12.422Z,61.87
2019-02-11T09:05:41.279Z,59.33
2019-02-11T09:08:10.412Z,59.33
2019-02-11T09:10:39.141Z,46.03
2019-02-11T09:13:08.003Z,71.40
2019-02-11T09:15:36.726Z,51.10
2019-02-11T09:18:05.570Z,42.97
2019-02-11T09:20:34.361Z,40.97
2019-02-11T09:23:03.071Z,38.97
2019-02-11T09:25:31.798Z,41.43
2019-02-11T09:28:00.558Z,39.03
2019-02-11T09:30:29.278Z,41.40
2019-02-11T09:32:57.995Z,44.20
2019-02-11T09:35:26.763Z,42.77
2019-02-11T09:37:55.484Z,43.77
2019-02-11T09:40:24.218Z,38.90
2019-02-11T09:42:53.437Z,40.03
2019-02-11T09:45:24.841Z,40.50
2019-02-11T09:47:53.570Z,48.37
2019-02-11T09:50:25.871Z,46.50
2019-02-11T09:52:54.601Z,47.57
2019-02-11T09:55:29.192Z,44.63
2019-02-11T09:57:58.053Z,41.57
2019-02-11T10:00:27.492Z,43.30
2019-02-11T10:02:56.213Z,43.97
2019-02-11T10:05:25.095Z,42.60
2019-02-11T10:07:53.820Z,43.33
2019-02-11T10:10:22.553Z,44.87
2019-02-11T10:12:51.442Z,47.37
2019-02-11T10:15:20.177Z,48.63
2019-02-11T10:17:48.986Z,45.47
2019-02-11T10:20:17.812Z,45.13
2019-02-11T10:22:46.537Z,47.03
2019-02-11T10:25:24.079Z,45.60
2019-02-11T10:27:54.490Z,46.00
2019-02-11T10:30:23.214Z,45.43
2019-02-11T10:32:52.097Z,46.30
2019-02-11T10:35:21.020Z,47.77
2019-02-11T10:37:49.844Z,48.43
2019-02-11T10:40:18.719Z,51.60
2019-02-11T10:42:47.454Z,47.37
2019-02-11T10:45:16.262Z,47.93
2019-02-11T10:47:49.140Z,51.00
2019-02-11T10:50:18.870Z,54.53
2019-02-11T10:52:47.805Z,53.93
2019-02-11T10:55:18.657Z,52.20
2019-02-11T10:57:47.440Z,48.87
2019-02-11T11:00:19.310Z,52.00
2019-02-11T11:02:48.416Z,49.50
2019-02-11T11:05:17.227Z,49.20
2019-02-11T11:07:46.162Z,47.83
2019-02-11T11:10:26.725Z,43.27
2019-02-11T11:12:55.575Z,43.67
2019-02-11T11:15:24.501Z,44.23
2019-02-11T11:17:53.647Z,44.63
2019-02-11T11:20:22.368Z,47.70
2019-02-11T11:22:51.131Z,54.67
2019-02-11T11:25:20.127Z,43.00
2019-02-11T11:27:48.863Z,44.37
2019-02-11T11:30:21.294Z,41.83
2019-02-11T11:32:50.102Z,54.30
2019-02-11T11:35:19.126Z,45.70
2019-02-11T11:37:47.849Z,43.43
2019-02-11T11:40:21.639Z,43.63
2019-02-11T11:42:50.382Z,42.13
2019-02-11T11:45:20.513Z,43.63
2019-02-11T11:47:49.404Z,43.70
2019-02-11T11:50:18.631Z,42.97
2019-02-11T11:52:47.471Z,44.20
2019-02-11T11:55:21.617Z,45.80
2019-02-11T11:57:53.362Z,42.87
2019-02-11T12:00:24.837Z,46.73
2019-02-11T12:03:01.526Z,46.57
2019-02-11T12:05:24.294Z,45.23
2019-02-11T12:07:53.060Z,47.80
2019-02-11T12:10:21.929Z,46.07
2019-02-11T12:12:50.655Z,37.10
2019-02-11T12:15:22.352Z,36.73
2019-02-11T12:17:51.537Z,37.63
2019-02-11T12:20:21.812Z,34.87
2019-02-11T12:22:50.555Z,37.03
2019-02-11T12:25:19.780Z,38.27
2019-02-11T12:27:48.504Z,37.27
2019-02-11T12:30:25.500Z,37.17
2019-02-11T12:32:55.744Z,36.30
2019-02-11T12:35:24.839Z,35.33
2019-02-11T12:37:53.931Z,34.67
2019-02-11T12:40:22.668Z,35.60
2019-02-11T12:42:53.101Z,36.17
2019-02-11T12:45:24.834Z,36.83
2019-02-11T12:47:53.590Z,32.43
2019-02-11T12:50:22.333Z,31.57
2019-02-11T12:52:51.961Z,33.87
2019-02-11T12:55:20.705Z,33.83
2019-02-11T12:57:49.431Z,35.20
2019-02-11T13:00:24.803Z,34.97
2019-02-11T13:02:53.619Z,32.37
2019-02-11T13:05:32.292Z,33.30
2019-02-11T13:07:53.066Z,33.97
2019-02-11T13:10:21.782Z,33.53
2019-02-11T13:12:50.526Z,34.03
2019-02-11T13:15:53.096Z,34.87
2019-02-11T13:17:50.939Z,34.83
2019-02-11T13:20:20.061Z,34.27
2019-02-11T13:22:49.005Z,32.97
2019-02-11T13:25:18.850Z,33.60
2019-02-11T13:27:47.866Z,33.87
2019-02-11T13:30:18.522Z,38.50
2019-02-11T13:32:47.371Z,38.10
2019-02-11T13:35:16.248Z,38.00
2019-02-11T13:37:45.570Z,38.47
2019-02-11T13:40:14.810Z,39.47
2019-02-11T13:42:43.808Z,39.60
2019-02-11T13:45:14.721Z,38.10
2019-02-11T13:47:53.132Z,38.80
2019-02-11T13:50:16.244Z,39.33
2019-02-11T13:52:45.111Z,40.17
2019-02-11T13:55:13.949Z,43.93
2019-02-11T13:57:42.673Z,41.20
2019-02-11T14:00:21.427Z,42.67
2019-02-11T14:02:52.547Z,43.83
2019-02-11T14:05:21.836Z,44.57
2019-02-11T14:07:50.623Z,43.07
2019-02-11T14:10:19.428Z,43.93
2019-02-11T14:12:48.750Z,42.90
2019-02-11T14:15:20.289Z,44.80
2019-02-11T14:17:48.079Z,44.57
2019-02-11T14:20:25.757Z,45.03
2019-02-11T14:22:54.469Z,40.03
2019-02-11T14:25:40.521Z,44.07
2019-02-11T14:27:53.825Z,44.73
2019-02-11T14:30:23.068Z,42.17
2019-02-11T14:32:51.834Z,39.73
2019-02-11T14:35:21.305Z,40.57
2019-02-11T14:37:50.178Z,44.83
2019-02-11T14:40:19.108Z,37.70
2019-02-11T14:42:47.881Z,40.47
2019-02-11T14:45:20.429Z,40.70
2019-02-11T14:47:49.155Z,43.07
2019-02-11T14:50:18.058Z,39.87
2019-02-11T14:52:46.739Z,41.27
2019-02-11T14:55:15.460Z,38.80
2019-02-11T14:57:44.230Z,40.73
2019-02-11T15:00:21.564Z,40.87
2019-02-11T15:02:50.625Z,41.63
2019-02-11T15:05:19.752Z,41.53
2019-02-11T15:07:48.602Z,42.77
2019-02-11T15:10:19.588Z,44.07
2019-02-11T15:12:48.244Z,48.80
2019-02-11T15:15:16.978Z,47.03
2019-02-11T15:17:46.912Z,47.27
2019-02-11T15:20:16.633Z,45.77
2019-02-11T15:22:47.025Z,48.40
2019-02-11T15:25:18.171Z,42.47
2019-02-11T15:27:46.896Z,45.40
2019-02-11T15:30:17.521Z,41.83
2019-02-11T15:32:46.820Z,50.27
2019-02-11T15:35:15.571Z,42.13
2019-02-11T15:37:44.376Z,46.70
2019-02-11T15:40:21.747Z,45.73
2019-02-11T15:42:50.474Z,42.63
2019-02-11T15:45:19.196Z,43.03
2019-02-11T15:47:47.994Z,41.90
2019-02-11T15:50:18.020Z,42.70
2019-02-11T15:52:46.840Z,42.53
2019-02-11T15:55:21.109Z,43.53
2019-02-11T15:57:49.838Z,42.70
2019-02-11T16:00:23.293Z,46.37
2019-02-11T16:02:52.337Z,54.60
2019-02-11T16:05:21.199Z,49.33
2019-02-11T16:07:49.932Z,52.57
2019-02-11T16:10:22.420Z,48.43
2019-02-11T16:12:51.236Z,52.10
2019-02-11T16:15:19.950Z,46.77
2019-02-11T16:17:49.180Z,56.13
2019-02-11T16:20:17.901Z,51.57
2019-02-11T16:22:46.630Z,55.97
2019-02-11T16:25:16.094Z,56.80
2019-02-11T16:27:44.823Z,55.90
2019-02-11T16:30:16.493Z,53.63
2019-02-11T16:32:45.701Z,60.03
2019-02-11T16:35:16.326Z,83.40
2019-02-11T16:37:45.058Z,122.30
2019-02-11T16:40:28.314Z,102.53
2019-02-11T16:42:57.044Z,68.00
2019-02-11T16:45:25.765Z,56.17
2019-02-11T16:47:54.808Z,82.10
2019-02-11T16:50:23.539Z,252.47
2019-02-11T16:52:52.268Z,267.30
2019-02-11T16:55:21.066Z,301.93
2019-02-11T16:57:49.793Z,240.50
2019-02-11T17:00:21.755Z,169.03
2019-02-11T17:02:50.540Z,167.33
2019-02-11T17:05:19.290Z,223.27
2019-02-11T17:07:48.142Z,188.00
2019-02-11T17:10:17.167Z,189.40
2019-02-11T17:12:45.916Z,244.40
2019-02-11T17:15:19.036Z,219.77
2019-02-11T17:17:48.147Z,205.00
2019-02-11T17:20:17.487Z,228.87
2019-02-11T17:22:46.223Z,305.83
2019-02-11T17:25:15.833Z,318.33
2019-02-11T17:27:44.568Z,304.07
2019-02-11T17:30:15.906Z,304.00
2019-02-11T17:32:44.703Z,281.73
2019-02-11T17:35:13.543Z,258.23
2019-02-11T17:37:42.292Z,270.90
2019-02-11T17:40:13.589Z,265.63
2019-02-11T17:42:42.320Z,246.93
2019-02-11T17:45:16.574Z,230.40
2019-02-11T17:47:45.571Z,211.90
2019-02-11T17:50:14.510Z,184.63
2019-02-11T17:52:43.281Z,199.57
2019-02-11T17:55:14.235Z,195.40
2019-02-11T17:57:42.966Z,195.03
2019-02-11T18:00:25.357Z,194.97
2019-02-11T18:02:54.189Z,181.50
2019-02-11T18:05:22.918Z,333.17
2019-02-11T18:07:51.813Z,325.93
2019-02-11T18:10:20.569Z,283.57
2019-02-11T18:12:49.295Z,253.90
2019-02-11T18:15:18.114Z,158.63
2019-02-11T18:17:46.927Z,147.00
2019-02-11T18:20:15.660Z,160.60
2019-02-11T18:22:44.539Z,147.37
2019-02-11T18:25:13.473Z,134.10
2019-02-11T18:27:42.209Z,115.67
2019-02-11T18:30:15.941Z,111.83
2019-02-11T18:32:44.770Z,111.03
2019-02-11T18:35:18.290Z,120.40
2019-02-11T18:37:47.096Z,140.07
2019-02-11T18:40:16.331Z,118.83
2019-02-11T18:42:45.090Z,117.53
2019-02-11T18:45:18.627Z,118.93
2019-02-11T18:47:47.358Z,113.83
2019-02-11T18:50:16.607Z,109.80
2019-02-11T18:52:45.479Z,107.23
2019-02-11T18:55:19.060Z,118.23
2019-02-11T18:57:47.791Z,116.60
2019-02-11T19:00:19.921Z,117.57
2019-02-11T19:02:49.335Z,150.17
2019-02-11T19:05:18.489Z,135.73
2019-02-11T19:07:47.400Z,119.37
2019-02-11T19:10:17.639Z,118.63
2019-02-11T19:12:46.518Z,113.33
2019-02-11T19:15:19.080Z,248.40
2019-02-11T19:17:47.968Z,173.40
2019-02-11T19:20:17.708Z,116.13
2019-02-11T19:22:46.995Z,91.27
2019-02-11T19:25:16.008Z,106.53
2019-02-11T19:27:44.760Z,95.03
2019-02-11T19:30:20.937Z,100.60
2019-02-11T19:32:49.567Z,104.03
2019-02-11T19:35:18.404Z,113.23
2019-02-11T19:37:47.185Z,106.83
2019-02-11T19:40:17.815Z,122.60
2019-02-11T19:42:46.549Z,106.27
2019-02-11T19:45:18.219Z,105.87
2019-02-11T19:47:47.004Z,111.83
2019-02-11T19:50:17.227Z,116.03
2019-02-11T19:52:46.006Z,120.83
2019-02-11T19:55:20.382Z,120.83
2019-02-11T19:57:49.120Z,116.47
2019-02-11T20:00:22.112Z,109.93
2019-02-11T20:02:51.458Z,114.13
2019-02-11T20:05:20.196Z,127.30
2019-02-11T20:07:49.088Z,110.17
2019-02-11T20:10:20.296Z,101.73
2019-02-11T20:12:49.021Z,97.03
2019-02-11T20:15:20.146Z,88.27
2019-02-11T20:17:48.888Z,66.50
2019-02-11T20:20:19.918Z,63.73
2019-02-11T20:22:48.799Z,62.23
2019-02-11T20:25:17.525Z,56.00
2019-02-11T20:27:46.359Z,53.93
2019-02-11T20:30:24.414Z,73.67
2019-02-11T20:32:53.162Z,62.27
2019-02-11T20:35:21.885Z,69.87
2019-02-11T20:37:50.679Z,112.70
2019-02-11T20:40:27.625Z,90.43
2019-02-11T20:42:56.509Z,103.60
2019-02-11T20:45:29.657Z,126.87
2019-02-11T20:47:58.395Z,140.80
2019-02-11T20:50:27.496Z,148.27
2019-02-11T20:52:56.253Z,124.70
2019-02-11T20:55:24.965Z,115.03
2019-02-11T20:57:56.248Z,128.77
2019-02-11T21:00:26.291Z,122.37
2019-02-11T21:02:55.019Z,129.43
2019-02-11T21:05:24.425Z,131.53
2019-02-11T21:07:53.158Z,154.90
2019-02-11T21:10:24.345Z,116.33
2019-02-11T21:12:53.112Z,131.90
2019-02-11T21:15:21.857Z,148.20
2019-02-11T21:17:50.578Z,138.77
2019-02-11T21:20:37.782Z,117.73
2019-02-11T21:23:08.238Z,115.43
2019-02-11T21:25:37.155Z,124.63
2019-02-11T21:28:06.140Z,118.10
2019-02-11T21:30:34.884Z,116.70
2019-02-11T21:33:06.447Z,161.57
2019-02-11T21:35:35.252Z,134.63
2019-02-11T21:38:03.995Z,143.93
2019-02-11T21:40:32.725Z,116.13
2019-02-11T21:43:02.241Z,127.27
2019-02-11T21:45:32.431Z,99.93
2019-02-11T21:48:04.321Z,107.67
2019-02-11T21:50:33.098Z,108.50
2019-02-11T21:53:01.872Z,93.40
2019-02-11T21:55:30.601Z,90.10
2019-02-11T21:57:59.501Z,91.53
2019-02-11T22:00:28.226Z,77.73
2019-02-11T22:03:01.209Z,88.73
2019-02-11T22:05:29.994Z,101.63
2019-02-11T22:07:58.720Z,102.20
2019-02-11T22:10:27.447Z,95.70
2019-02-11T22:12:57.437Z,94.50
2019-02-11T22:15:26.124Z,95.93
2019-02-11T22:17:54.854Z,95.10
2019-02-11T22:20:24.072Z,126.30
2019-02-11T22:22:52.805Z,101.40
2019-02-11T22:25:21.683Z,109.17
2019-02-11T22:27:50.556Z,128.90
2019-02-11T22:30:24.217Z,89.53
2019-02-11T22:32:52.947Z,68.23
2019-02-11T22:35:22.149Z,55.23
2019-02-11T22:37:52.058Z,49.83
2019-02-11T22:40:20.790Z,55.77
2019-02-11T22:42:49.558Z,67.17
2019-02-11T22:45:21.155Z,60.43
2019-02-11T22:47:49.878Z,69.67
2019-02-11T22:50:18.767Z,67.30
2019-02-11T22:52:47.489Z,57.40
2019-02-11T22:55:16.716Z,54.50
2019-02-11T22:57:45.962Z,62.20
2019-02-11T23:00:49.215Z,67.77
2019-02-11T23:03:18.286Z,73.37
2019-02-11T23:05:47.007Z,77.80
2019-02-11T23:08:15.745Z,77.43
2019-02-11T23:10:44.740Z,89.40
2019-02-11T23:13:13.563Z,79.30
2019-02-11T23:15:42.290Z,72.23
2019-02-11T23:18:11.070Z,65.63
2019-02-11T23:20:39.796Z,58.47
2019-02-11T23:23:08.523Z,88.80
2019-02-11T23:25:37.288Z,65.10
2019-02-11T23:28:06.049Z,56.13
2019-02-11T23:30:34.771Z,53.53
2019-02-11T23:33:03.579Z,55.10
2019-02-11T23:35:32.310Z,56.23
2019-02-11T23:38:01.037Z,52.80
2019-02-11T23:40:30.268Z,52.20
2019-02-11T23:42:59.946Z,53.07
2019-02-11T23:45:28.808Z,56.33
2019-02-11T23:47:57.686Z,55.43
2019-02-11T23:50:26.418Z,46.73
2019-02-11T23:52:55.136Z,57.37
2019-02-11T23:55:24.009Z,62.17
2019-02-11T23:57:52.740Z,60.27
